Time;durP1;ratioP1;P1;durP2;ratioP2;P2;SDS_P1;SDS_P2;PMS_P1;PMS_P2;Temp;Humidity;BMP_temperature;BMP_pressure;BME280_temperature;BME280_humidity;BME280_pressure;Samples;Min_cycle;Max_cycle;Signal;HPM_P1;HPM_P2
2021/12/07 00:00:27;;;;;;;;;;;;;;;21.69;26.24;95070.84;1028690;28;1066;-74
2021/12/07 00:00:57;;;;;;;;;;;;;;;21.70;26.32;95068.97;1028909;28;1224;-75
2021/12/07 00:01:28;;;;;;;;;;;;;;;21.70;26.57;95068.97;1027548;28;1488;-75
2021/12/07 00:01:59;;;;;;;;;;;;;;;21.69;26.46;95067.41;1027468;28;1113;-75
2021/12/07 00:02:29;;;;;;;;;;;;;;;21.69;26.32;95064.78;1027776;28;2803;-76
2021/12/07 00:03:00;;;;;;;;;;;;;;;21.69;26.33;95059.50;1029217;28;1330;-75
2021/12/07 00:03:30;;;;;;;;;;;;;;;21.69;26.08;95062.91;1021346;29;1515;-76
2021/12/07 00:04:00;;;;;;;;;;;;;;;21.68;26.33;95053.44;1023580;28;1585;-75
2021/12/07 00:04:31;;;;;;;;;;;;;;;21.69;26.29;95059.50;1020299;29;1429;-75
2021/12/07 00:05:01;;;;;;;;;;;;;;;21.69;26.45;95060.28;1024265;29;1384;-77
2021/12/07 00:05:31;;;;;;;;;;;;;;;21.70;26.31;95058.44;1020676;29;1253;-74
2021/12/07 00:06:02;;;;;;;;;;;;;;;21.69;26.57;95048.94;1023232;29;1403;-75
2021/12/07 00:06:33;;;;;;;;;;;;;;;21.68;26.38;95056.06;1020569;29;1249;-75
2021/12/07 00:07:03;;;;;;;;;;;;;;;21.68;26.22;95058.72;1027237;28;1848;-73
2021/12/07 00:07:34;;;;;;;;;;;;;;;21.69;26.12;95056.84;1028578;28;2140;-76
2021/12/07 00:08:04;;;;;;;;;;;;;;;21.69;26.17;95054.22;1032565;28;1160;-75
2021/12/07 00:08:35;;;;;;;;;;;;;;;21.68;26.36;95058.72;1028656;28;1437;-75
2021/12/07 00:09:07;;;;;;;;;;;;;;;21.68;26.38;95060.56;1028362;28;1164;-73
2021/12/07 00:09:37;;;;;;;;;;;;;;;21.68;26.31;95063.97;1028509;28;1184;-74
2021/12/07 00:10:08;;;;;;;;;;;;;;;21.68;26.32;95066.63;1028094;28;2137;-75
2021/12/07 00:10:38;;;;;;;;;;;;;;;21.68;26.20;95065.84;1032423;28;1088;-75
2021/12/07 00:11:09;;;;;;;;;;;;;;;21.69;26.36;95068.19;1032385;28;1039;-75
2021/12/07 00:11:39;;;;;;;;;;;;;;;21.68;26.32;95071.09;1024283;29;1903;-74
2021/12/07 00:12:10;;;;;;;;;;;;;;;21.68;26.33;95065.84;1019248;29;1856;-75
2021/12/07 00:12:42;;;;;;;;;;;;;;;21.68;26.23;95068.47;1021398;29;1134;-73
2021/12/07 00:13:13;;;;;;;;;;;;;;;21.68;26.32;95071.91;1028367;28;1335;-74
2021/12/07 00:13:43;;;;;;;;;;;;;;;21.69;26.12;95070.03;1025910;28;1093;-74
2021/12/07 00:14:22;;;;;;;;;;;;;;;21.69;26.18;95064.78;1029475;28;1022;-75
2021/12/07 00:15:00;;;;;;;;;;;;;;;21.67;26.33;95062.44;1033087;28;1448;-74
2021/12/07 00:15:33;;;;;;;;;;;;;;;21.68;26.64;95065.84;1026820;28;1164;-75
2021/12/07 00:16:04;;;;;;;;;;;;;;;21.68;26.19;95060.56;1024708;28;1169;-75
2021/12/07 00:16:34;;;;;;;;;;;;;;;21.67;26.16;95062.44;1028434;28;2216;-74
2021/12/07 00:17:05;;;;;;;;;;;;;;;21.68;26.29;95063.19;1028722;28;1445;-74
2021/12/07 00:17:35;;;;;;;;;;;;;;;21.68;26.53;95063.19;1031552;28;2195;-75
2021/12/07 00:18:05;;;;;;;;;;;;;;;21.68;26.25;95058.72;1028381;28;1311;-75
2021/12/07 00:18:36;;;;;;;;;;;;;;;21.69;26.09;95064.78;1024836;29;1414;-76
2021/12/07 00:19:06;;;;;;;;;;;;;;;21.67;26.27;95059.81;1023159;29;1039;-75
2021/12/07 00:19:37;;;;;;;;;;;;;;;21.69;26.18;95062.13;1028446;28;1200;-74
2021/12/07 00:20:09;;;;;;;;;;;;;;;21.68;26.31;95060.56;1023807;29;1887;-74
2021/12/07 00:20:40;;;;;;;;;;;;;;;21.68;26.23;95061.34;1024528;28;2198;-75
2021/12/07 00:21:10;;;;;;;;;;;;;;;21.67;26.37;95061.66;1024492;28;1573;-75
2021/12/07 00:21:41;;;;;;;;;;;;;;;21.67;26.26;95061.66;1028603;28;1474;-74
2021/12/07 00:22:11;;;;;;;;;;;;;;;21.68;26.54;95060.56;1027336;28;1889;-71
2021/12/07 00:22:42;;;;;;;;;;;;;;;21.69;26.45;95056.84;1020664;29;1377;-74
2021/12/07 00:23:13;;;;;;;;;;;;;;;21.67;26.34;95057.16;1028769;28;1216;-75
2021/12/07 00:23:43;;;;;;;;;;;;;;;21.67;26.38;95051.09;1025609;28;1671;-73
2021/12/07 00:24:14;;;;;;;;;;;;;;;21.68;26.20;95060.56;1035055;28;1050;-75
2021/12/07 00:24:44;;;;;;;;;;;;;;;21.67;26.11;95057.16;1035738;28;1320;-73
2021/12/07 00:25:15;;;;;;;;;;;;;;;21.67;26.24;95061.66;1033104;28;730;-75
2021/12/07 00:25:45;;;;;;;;;;;;;;;21.66;26.26;95050.31;1028866;28;1315;-73
2021/12/07 00:26:15;;;;;;;;;;;;;;;21.66;26.18;95054.78;1029011;28;1011;-73
2021/12/07 00:26:46;;;;;;;;;;;;;;;21.67;26.28;95061.66;1024464;28;1346;-73
2021/12/07 00:27:16;;;;;;;;;;;;;;;21.66;26.32;95054.78;1023780;29;1885;-74
2021/12/07 00:27:47;;;;;;;;;;;;;;;21.66;26.07;95062.72;1028971;28;1061;-73
2021/12/07 00:28:20;;;;;;;;;;;;;;;21.66;26.16;95054.78;1028213;28;1403;-75
2021/12/07 00:28:51;;;;;;;;;;;;;;;21.67;26.19;95056.38;1030969;28;1133;-74
2021/12/07 00:29:21;;;;;;;;;;;;;;;21.66;26.27;95058.22;1028127;28;1201;-72
2021/12/07 00:29:51;;;;;;;;;;;;;;;21.67;26.26;95053.72;1028437;28;1192;-74
2021/12/07 00:30:27;;;;;;;;;;;;;;;21.66;26.33;95055.59;1024565;29;1394;-75
2021/12/07 00:31:08;;;;;;;;;;;;;;;21.66;26.25;95055.59;1025279;28;1121;-74
2021/12/07 00:31:51;;;;;;;;;;;;;;;21.67;26.20;95061.66;1028651;28;1970;-74
2021/12/07 00:32:30;;;;;;;;;;;;;;;21.66;26.30;95060.06;1027754;28;1867;-73
2021/12/07 00:33:11;;;;;;;;;;;;;;;21.65;26.10;95056.69;1028461;28;1300;-76
2021/12/07 00:33:50;;;;;;;;;;;;;;;21.67;26.35;95056.38;1024311;28;1482;-74
2021/12/07 00:35:43;;;;;;;;;;;;;;;21.66;26.27;95049.53;1028080;28;1334;-75
2021/12/07 00:36:13;;;;;;;;;;;;;;;21.66;26.16;95047.66;1026650;28;1438;-73
2021/12/07 00:36:45;;;;;;;;;;;;;;;21.64;26.42;95047.19;1028110;28;1507;-73
2021/12/07 00:37:15;;;;;;;;;;;;;;;21.65;26.48;95048.75;1023253;28;2081;-73
2021/12/07 00:37:47;;;;;;;;;;;;;;;21.65;26.28;95040.84;1024001;28;1578;-72
2021/12/07 00:38:19;;;;;;;;;;;;;;;21.66;26.37;95039.75;1028603;28;2273;-73
2021/12/07 00:38:49;;;;;;;;;;;;;;;21.66;26.27;95046.88;1024431;28;1343;-73
2021/12/07 00:39:20;;;;;;;;;;;;;;;21.66;26.32;95044.25;1024155;29;832;-73
2021/12/07 00:39:50;;;;;;;;;;;;;;;21.65;26.44;95043.50;1024242;28;1110;-76
2021/12/07 00:40:21;;;;;;;;;;;;;;;21.66;26.48;95038.97;1024944;28;1209;-74
2021/12/07 00:40:52;;;;;;;;;;;;;;;21.65;26.37;95040.06;1029511;28;1259;-74
2021/12/07 00:41:22;;;;;;;;;;;;;;;21.65;26.17;95042.69;1024418;29;1501;-71
2021/12/07 00:41:53;;;;;;;;;;;;;;;21.65;26.12;95042.69;1020420;29;1571;-72
2021/12/07 00:42:23;;;;;;;;;;;;;;;21.64;26.21;95028.72;1019724;29;1922;-73
2021/12/07 00:42:53;;;;;;;;;;;;;;;21.65;26.27;95042.69;1020432;29;1195;-73
2021/12/07 00:43:26;;;;;;;;;;;;;;;21.65;26.19;95037.44;1016334;29;1535;-73
2021/12/07 00:43:56;;;;;;;;;;;;;;;21.64;26.11;95027.94;1020050;29;1174;-72
2021/12/07 00:44:26;;;;;;;;;;;;;;;21.64;26.08;95028.72;1019716;29;1306;-75
2021/12/07 00:44:57;;;;;;;;;;;;;;;21.64;26.07;95034.00;1024227;28;1567;-75
2021/12/07 00:45:31;;;;;;;;;;;;;;;21.65;26.06;95029.50;1020626;29;1329;-75
2021/12/07 00:46:02;;;;;;;;;;;;;;;21.65;26.13;95032.16;1024050;28;1311;-74
2021/12/07 00:46:32;;;;;;;;;;;;;;;21.65;26.27;95029.50;1024694;29;723;-74
2021/12/07 00:47:03;;;;;;;;;;;;;;;21.64;26.08;95035.84;1019736;29;1491;-75
2021/12/07 00:47:33;;;;;;;;;;;;;;;21.66;26.17;95038.97;1020537;28;1944;-75
2021/12/07 00:48:07;;;;;;;;;;;;;;;21.64;26.17;95031.38;1032196;28;1121;-73
2021/12/07 00:48:37;;;;;;;;;;;;;;;21.65;26.39;95032.16;1028722;28;1474;-73
2021/12/07 00:49:07;;;;;;;;;;;;;;;21.66;26.33;95028.41;1028253;28;1118;-74
2021/12/07 00:49:38;;;;;;;;;;;;;;;21.65;26.24;95026.88;1024433;29;1465;-74
2021/12/07 00:50:08;;;;;;;;;;;;;;;21.64;26.00;95025.31;1020608;29;1075;-74
2021/12/07 00:50:39;;;;;;;;;;;;;;;21.64;26.13;95026.09;1024285;29;1437;-74
2021/12/07 00:51:09;;;;;;;;;;;;;;;21.64;26.01;95033.22;1023309;28;1864;-74
2021/12/07 00:51:39;;;;;;;;;;;;;;;21.64;25.98;95025.31;1028139;28;1977;-75
2021/12/07 00:52:10;;;;;;;;;;;;;;;21.63;26.25;95027.19;1028346;28;1110;-73
2021/12/07 00:52:40;;;;;;;;;;;;;;;21.64;26.04;95025.31;1029388;28;1909;-74
2021/12/07 00:53:11;;;;;;;;;;;;;;;21.64;26.05;95031.38;1024491;28;1099;-74
2021/12/07 00:53:41;;;;;;;;;;;;;;;21.64;26.15;95035.84;1027867;28;1544;-74
2021/12/07 00:54:12;;;;;;;;;;;;;;;21.64;26.19;95033.22;1024083;28;1237;-75
2021/12/07 00:54:42;;;;;;;;;;;;;;;21.63;26.05;95024.53;1023641;29;1372;-74
2021/12/07 00:55:14;;;;;;;;;;;;;;;21.63;26.07;95031.66;1020808;29;1116;-74
2021/12/07 00:55:47;;;;;;;;;;;;;;;21.63;26.08;95024.53;1023304;28;1618;-72
2021/12/07 00:56:17;;;;;;;;;;;;;;;21.63;26.15;95023.75;1024611;29;833;-74
2021/12/07 00:56:47;;;;;;;;;;;;;;;21.63;26.19;95029.81;1023764;28;1164;-74
2021/12/07 00:57:20;;;;;;;;;;;;;;;21.64;25.98;95027.94;1028699;28;1113;-75
2021/12/07 00:57:53;;;;;;;;;;;;;;;21.63;26.05;95024.53;1028060;28;2267;-74
2021/12/07 00:58:24;;;;;;;;;;;;;;;21.64;26.21;95033.22;1025422;28;1165;-75
2021/12/07 00:58:54;;;;;;;;;;;;;;;21.64;26.17;95028.72;1028293;28;2088;-74
2021/12/07 00:59:25;;;;;;;;;;;;;;;21.64;26.17;95025.31;1028458;28;1247;-74
2021/12/07 00:59:56;;;;;;;;;;;;;;;21.64;26.27;95025.31;1032675;28;1120;-76
2021/12/07 01:00:27;;;;;;;;;;;;;;;21.63;26.25;95024.53;1033088;28;1370;-75
2021/12/07 01:01:02;;;;;;;;;;;;;;;21.63;26.15;95032.47;1027830;28;1513;-73
2021/12/07 01:01:33;;;;;;;;;;;;;;;21.64;26.15;95026.09;1028376;28;1238;-74
2021/12/07 01:02:03;;;;;;;;;;;;;;;21.63;26.01;95024.53;1024059;29;1390;-74
2021/12/07 01:02:34;;;;;;;;;;;;;;;21.63;26.31;95024.53;1023505;29;1910;-73
2021/12/07 01:03:04;;;;;;;;;;;;;;;21.63;26.20;95027.19;1023907;28;1430;-75
2021/12/07 01:03:34;;;;;;;;;;;;;;;21.64;26.25;95020.03;1027314;28;1279;-74
2021/12/07 01:04:05;;;;;;;;;;;;;;;21.64;26.01;95022.66;1023606;29;1442;-72
2021/12/07 01:04:35;;;;;;;;;;;;;;;21.65;26.04;95021.59;1024568;28;1235;-74
2021/12/07 01:05:13;;;;;;;;;;;;;;;21.65;26.39;95021.59;1024040;28;1371;-74
2021/12/07 01:05:49;;;;;;;;;;;;;;;21.64;26.48;95022.66;1021907;29;1661;-74
2021/12/07 01:06:29;;;;;;;;;;;;;;;21.64;26.11;95014.75;1020422;29;1204;-74
2021/12/07 01:07:04;;;;;;;;;;;;;;;21.64;26.20;95020.03;1016102;29;1242;-72
2021/12/07 01:08:12;;;;;;;;;;;;;;;21.64;26.20;95020.03;1023584;28;1919;-74
2021/12/07 01:08:55;;;;;;;;;;;;;;;21.64;25.91;95017.38;1028354;28;1596;-74
2021/12/07 01:24:45;;;;;;;;;;;;;;;21.62;26.09;95006.34;1025578;28;1277;-74
2021/12/07 01:25:16;;;;;;;;;;;;;;;21.62;26.25;95014.28;1029507;28;1221;-74
2021/12/07 01:25:47;;;;;;;;;;;;;;;21.61;26.18;95015.38;1027317;28;1552;-75
2021/12/07 01:26:19;;;;;;;;;;;;;;;21.62;26.13;95016.91;1027670;28;1204;-73
2021/12/07 01:26:51;;;;;;;;;;;;;;;21.61;26.05;95016.16;1026198;28;1337;-73
2021/12/07 01:27:22;;;;;;;;;;;;;;;21.61;26.14;95008.25;1023990;28;1748;-74
2021/12/07 01:27:56;;;;;;;;;;;;;;;21.61;26.05;95010.88;1027188;28;1978;-74
2021/12/07 01:28:38;;;;;;;;;;;;;;;21.62;26.13;95006.34;1024011;29;1087;-74
2021/12/07 01:29:08;;;;;;;;;;;;;;;21.62;26.02;95001.88;1026038;28;1042;-74
2021/12/07 01:29:40;;;;;;;;;;;;;;;21.62;26.04;95003.72;1032117;28;1202;-74
2021/12/07 01:31:15;;;;;;;;;;;;;;;21.62;26.05;95004.50;1036128;28;1594;-74
2021/12/07 01:31:40;;;;;;;;;;;;;;;21.62;25.96;94999.22;1028740;28;1963;-74
2021/12/07 01:32:27;;;;;;;;;;;;;;;21.61;26.17;94994.25;1026810;28;1202;-73
2021/12/07 01:33:21;;;;;;;;;;;;;;;21.61;26.05;94991.63;1021188;29;1910;-72
2021/12/07 01:37:07;;;;;;;;;;;;;;;21.60;26.11;94995.31;1029006;28;1866;-75
2021/12/07 01:38:27;;;;;;;;;;;;;;;21.60;26.04;95003.25;1028446;28;1885;-72
2021/12/07 01:43:50;;;;;;;;;;;;;;;21.60;26.15;94998.75;1027760;28;1449;-74
2021/12/07 01:44:40;;;;;;;;;;;;;;;21.59;26.30;94994.56;1023052;28;1537;-73
2021/12/07 01:47:26;;;;;;;;;;;;;;;21.59;26.16;94996.41;1037413;28;1129;-74
2021/12/07 01:49:36;;;;;;;;;;;;;;;21.59;26.00;94996.41;1035881;28;2041;-73
2021/12/07 01:59:58;;;;;;;;;;;;;;;21.59;26.02;95001.69;1023993;28;1212;-72
2021/12/07 02:00:29;;;;;;;;;;;;;;;21.59;26.21;95002.47;1021210;29;1465;-74
2021/12/07 02:01:00;;;;;;;;;;;;;;;21.58;26.09;95002.75;1020441;28;1265;-74
2021/12/07 02:01:30;;;;;;;;;;;;;;;21.59;25.89;95002.47;1020493;29;1237;-73
2021/12/07 02:02:02;;;;;;;;;;;;;;;21.59;26.16;94999.06;1016019;29;1272;-74
2021/12/07 02:02:32;;;;;;;;;;;;;;;21.58;26.23;94992.22;1020148;29;1122;-73
2021/12/07 02:03:03;;;;;;;;;;;;;;;21.58;26.16;95006.19;1020980;28;1135;-76
2021/12/07 02:03:33;;;;;;;;;;;;;;;21.58;26.12;94995.63;1030962;28;1899;-74
2021/12/07 02:04:04;;;;;;;;;;;;;;;21.59;25.87;95002.47;1031726;28;1203;-74
2021/12/07 02:04:35;;;;;;;;;;;;;;;21.58;25.93;94993.00;1031957;28;1424;-75
2021/12/07 02:05:05;;;;;;;;;;;;;;;21.59;26.14;94999.06;1032058;28;1336;-76
2021/12/07 02:05:35;;;;;;;;;;;;;;;21.60;26.15;94995.31;1031769;28;1224;-74
2021/12/07 02:06:06;;;;;;;;;;;;;;;21.60;26.22;94997.97;1027886;28;1148;-74
2021/12/07 02:06:37;;;;;;;;;;;;;;;21.58;26.31;94995.63;1024421;28;1828;-73
2021/12/07 02:07:10;;;;;;;;;;;;;;;21.59;26.19;94996.41;1027588;28;1229;-74
2021/12/07 02:07:44;;;;;;;;;;;;;;;21.58;26.25;94995.63;1023945;28;1337;-75
2021/12/07 02:08:18;;;;;;;;;;;;;;;21.58;26.28;94986.94;1028958;28;1749;-72
2021/12/07 02:09:11;;;;;;;;;;;;;;;21.57;26.22;94993.31;1029987;28;1349;-74
2021/12/07 02:10:07;;;;;;;;;;;;;;;21.58;26.30;94997.47;1026695;28;1160;-74
2021/12/07 02:10:43;;;;;;;;;;;;;;;21.57;26.40;94994.09;1032269;28;1145;-76
2021/12/07 02:11:20;;;;;;;;;;;;;;;21.58;26.23;94998.25;1028091;28;1964;-75
2021/12/07 02:11:58;;;;;;;;;;;;;;;21.59;25.94;94991.16;1027996;28;1141;-73
2021/12/07 02:12:33;;;;;;;;;;;;;;;21.58;26.02;94992.22;1032460;28;757;-74
2021/12/07 02:14:21;;;;;;;;;;;;;;;21.58;26.03;94986.94;1025226;28;1305;-74
2021/12/07 02:15:12;;;;;;;;;;;;;;;21.56;25.89;94991.72;1033418;28;1199;-74
2021/12/07 02:15:43;;;;;;;;;;;;;;;21.58;26.21;94989.56;1034660;28;1724;-74
2021/12/07 02:16:15;;;;;;;;;;;;;;;21.57;26.27;94986.19;1036138;28;1712;-74
2021/12/07 02:16:49;;;;;;;;;;;;;;;21.57;26.25;94982.75;1030752;28;1909;-74
2021/12/07 02:17:29;;;;;;;;;;;;;;;21.57;26.24;94988.81;1020297;29;1372;-72
2021/12/07 02:17:59;;;;;;;;;;;;;;;21.55;25.99;94971.72;1015277;29;1398;-74
2021/12/07 02:18:49;;;;;;;;;;;;;;;21.56;26.08;94984.59;1018189;29;1492;-74
2021/12/07 02:19:40;;;;;;;;;;;;;;;21.57;26.04;94983.53;1025418;28;1232;-73
2021/12/07 02:20:18;;;;;;;;;;;;;;;21.57;26.01;94972.19;1018485;29;1221;-73
2021/12/07 02:20:51;;;;;;;;;;;;;;;21.56;26.09;94981.97;1015812;29;1234;-72
2021/12/07 02:21:23;;;;;;;;;;;;;;;21.56;25.99;94976.69;1020109;29;1528;-74
2021/12/07 02:21:55;;;;;;;;;;;;;;;21.57;26.02;94977.47;1024577;28;1452;-73
2021/12/07 02:22:32;;;;;;;;;;;;;;;21.56;26.13;94981.97;1020256;29;1346;-74
2021/12/07 02:23:22;;;;;;;;;;;;;;;21.57;26.07;94978.25;1018508;29;1796;-72
2021/12/07 02:24:04;;;;;;;;;;;;;;;21.57;26.04;94986.19;1019765;29;1650;-71
2021/12/07 02:24:35;;;;;;;;;;;;;;;21.57;26.00;94977.47;1024539;28;813;-75
2021/12/07 02:25:06;;;;;;;;;;;;;;;21.57;26.24;94978.25;1025834;28;1504;-74
2021/12/07 02:25:37;;;;;;;;;;;;;;;21.57;26.22;94983.53;1026006;28;1120;-74
2021/12/07 02:26:27;;;;;;;;;;;;;;;21.56;26.15;94981.19;1030401;28;1242;-73
2021/12/07 02:27:14;;;;;;;;;;;;;;;21.56;26.04;94973.25;1032037;28;1228;-74
2021/12/07 02:27:59;;;;;;;;;;;;;;;21.56;25.96;94981.97;1028000;28;1209;-73
2021/12/07 02:28:30;;;;;;;;;;;;;;;21.56;26.20;94981.19;1023691;28;1814;-75
2021/12/07 02:29:00;;;;;;;;;;;;;;;21.55;26.16;94975.16;1027919;28;1351;-73
2021/12/07 02:29:31;;;;;;;;;;;;;;;21.56;26.03;94979.31;1023169;29;1426;-71
2021/12/07 02:30:02;;;;;;;;;;;;;;;21.55;26.14;94975.16;1019979;29;1492;-73
2021/12/07 02:30:36;;;;;;;;;;;;;;;21.55;25.94;94974.34;1020252;29;1501;-74
2021/12/07 02:31:20;;;;;;;;;;;;;;;21.54;26.22;94978.06;1028200;28;1938;-75
2021/12/07 02:32:10;;;;;;;;;;;;;;;21.56;26.06;94973.25;1025093;28;1225;-74
2021/12/07 02:32:43;;;;;;;;;;;;;;;21.55;25.88;94972.50;1020125;29;1119;-74
2021/12/07 02:33:13;;;;;;;;;;;;;;;21.56;25.93;94974.06;1027993;28;1123;-75
2021/12/07 02:33:44;;;;;;;;;;;;;;;21.55;25.94;94969.88;1021116;28;2237;-74
2021/12/07 02:34:15;;;;;;;;;;;;;;;21.56;25.94;94968.00;1028725;28;801;-74
2021/12/07 02:34:54;;;;;;;;;;;;;;;21.54;25.87;94965.66;1030316;28;2544;-74
2021/12/07 02:35:27;;;;;;;;;;;;;;;21.55;26.04;94969.88;1029655;28;1010;-75
2021/12/07 02:35:57;;;;;;;;;;;;;;;21.54;25.80;94967.50;1027292;28;1353;-73
2021/12/07 02:36:28;;;;;;;;;;;;;;;21.55;25.76;94969.09;1025562;28;1179;-75
2021/12/07 02:36:59;;;;;;;;;;;;;;;21.54;26.06;94960.38;1024571;28;1097;-74
2021/12/07 02:37:30;;;;;;;;;;;;;;;21.54;25.95;94963.03;1028418;28;789;-74
2021/12/07 02:38:00;;;;;;;;;;;;;;;21.54;25.77;94962.22;1027555;28;1156;-75
2021/12/07 02:38:31;;;;;;;;;;;;;;;21.55;26.17;94969.09;1020740;29;2014;-74
2021/12/07 02:39:03;;;;;;;;;;;;;;;21.55;25.96;94963.81;1027672;28;1156;-73
2021/12/07 02:39:34;;;;;;;;;;;;;;;21.54;25.88;94955.13;1022978;28;1413;-73
2021/12/07 02:40:04;;;;;;;;;;;;;;;21.55;26.08;94964.59;1030182;28;1126;-74
2021/12/07 02:40:35;;;;;;;;;;;;;;;21.55;26.03;94961.16;1024277;29;991;-74
2021/12/07 02:41:06;;;;;;;;;;;;;;;21.56;26.02;94958.22;1023976;28;1585;-72
2021/12/07 02:41:37;;;;;;;;;;;;;;;21.56;26.24;94962.72;1020878;29;1054;-73
2021/12/07 02:42:07;;;;;;;;;;;;;;;21.55;26.14;94955.91;1019903;29;1079;-74
2021/12/07 02:42:38;;;;;;;;;;;;;;;21.55;26.22;94953.25;1024206;28;1199;-72
2021/12/07 02:43:08;;;;;;;;;;;;;;;21.55;25.87;94959.31;1020036;29;1147;-75
2021/12/07 02:43:38;;;;;;;;;;;;;;;21.55;26.08;94961.16;1019077;28;2040;-74
2021/12/07 02:44:09;;;;;;;;;;;;;;;21.55;26.04;94963.81;1019200;29;1197;-71
2021/12/07 02:44:39;;;;;;;;;;;;;;;21.55;25.86;94953.25;1027267;28;1281;-72
2021/12/07 02:45:09;;;;;;;;;;;;;;;21.56;26.02;94952.16;1024012;29;1133;-75
2021/12/07 02:45:40;;;;;;;;;;;;;;;21.55;25.97;94961.97;1027594;28;1772;-74
2021/12/07 02:46:10;;;;;;;;;;;;;;;21.55;26.08;94961.16;1027665;28;1018;-75
2021/12/07 02:46:41;;;;;;;;;;;;;;;21.54;26.00;94952.47;1024012;29;1512;-74
2021/12/07 02:47:11;;;;;;;;;;;;;;;21.55;26.15;94953.25;1024253;29;1291;-75
2021/12/07 02:47:41;;;;;;;;;;;;;;;21.55;26.04;94958.53;1025461;28;1133;-74
2021/12/07 02:48:12;;;;;;;;;;;;;;;21.55;26.25;94958.53;1028044;28;1576;-75
2021/12/07 02:48:43;;;;;;;;;;;;;;;21.55;26.34;94956.69;1026108;28;1950;-75
2021/12/07 02:49:14;;;;;;;;;;;;;;;21.55;26.20;94955.91;1028027;28;1216;-74
2021/12/07 02:49:44;;;;;;;;;;;;;;;21.56;26.43;94968.78;1028695;28;1105;-75
2021/12/07 02:50:15;;;;;;;;;;;;;;;21.56;26.45;94960.06;1024190;29;1409;-74
2021/12/07 02:50:45;;;;;;;;;;;;;;;21.56;26.07;94965.34;1019998;29;1146;-73
2021/12/07 02:51:15;;;;;;;;;;;;;;;21.55;26.00;94963.81;1019826;29;2394;-75
2021/12/07 02:51:45;;;;;;;;;;;;;;;21.54;26.20;94956.97;1017852;29;1887;-75
2021/12/07 02:52:16;;;;;;;;;;;;;;;21.55;26.01;94964.59;1028934;28;1056;-75
2021/12/07 02:52:46;;;;;;;;;;;;;;;21.54;25.97;94968.28;1030442;28;1077;-75
2021/12/07 02:53:18;;;;;;;;;;;;;;;21.55;25.96;94969.09;1027280;28;2338;-74
2021/12/07 02:53:49;;;;;;;;;;;;;;;21.54;26.01;94963.03;1028165;28;1582;-74
2021/12/07 02:54:21;;;;;;;;;;;;;;;21.54;25.89;94962.22;1020340;29;1570;-76
2021/12/07 02:54:51;;;;;;;;;;;;;;;21.54;26.21;94963.03;1020210;29;1566;-74
2021/12/07 02:55:22;;;;;;;;;;;;;;;21.54;26.14;94965.66;1024153;29;801;-74
2021/12/07 02:55:52;;;;;;;;;;;;;;;21.55;26.27;94963.81;1021077;29;1404;-75
2021/12/07 02:56:23;;;;;;;;;;;;;;;21.55;26.23;94966.44;1024062;29;1254;-74
2021/12/07 02:56:53;;;;;;;;;;;;;;;21.55;26.10;94963.81;1023295;28;2092;-75
2021/12/07 02:57:24;;;;;;;;;;;;;;;21.54;26.14;94963.03;1024274;28;1260;-76
2021/12/07 02:57:54;;;;;;;;;;;;;;;21.54;26.17;94957.75;1028122;28;1141;-74
2021/12/07 02:58:25;;;;;;;;;;;;;;;21.55;25.99;94961.16;1026531;28;1478;-75
2021/12/07 02:58:59;;;;;;;;;;;;;;;21.54;25.90;94962.22;1022561;28;2351;-74
2021/12/07 02:59:30;;;;;;;;;;;;;;;21.54;26.22;94959.59;1023631;28;840;-75
2021/12/07 03:00:08;;;;;;;;;;;;;;;21.53;26.09;94963.31;1025766;28;1166;-73
2021/12/07 03:00:46;;;;;;;;;;;;;;;21.54;26.03;94959.59;1029032;28;1437;-75
2021/12/07 03:01:24;;;;;;;;;;;;;;;21.54;26.07;94964.88;1028839;28;1387;-74
2021/12/07 03:02:02;;;;;;;;;;;;;;;21.53;26.10;94965.97;1024212;28;2501;-76
2021/12/07 03:02:39;;;;;;;;;;;;;;;21.54;25.90;94960.38;1029570;28;1518;-75
2021/12/07 03:03:12;;;;;;;;;;;;;;;21.53;25.80;94965.97;1028075;28;1544;-75
2021/12/07 03:04:44;;;;;;;;;;;;;;;21.53;25.79;94960.69;1028455;28;1347;-74
2021/12/07 03:05:48;;;;;;;;;;;;;;;21.53;26.20;94960.69;1028983;28;1121;-74
2021/12/07 03:06:31;;;;;;;;;;;;;;;21.52;25.89;94962.53;1031247;28;1040;-75
2021/12/07 03:07:54;;;;;;;;;;;;;;;21.51;25.83;94957.56;1033046;28;800;-77
2021/12/07 03:09:35;;;;;;;;;;;;;;;21.52;25.89;94961.75;1028882;28;1745;-74
2021/12/07 03:26:10;;;;;;;;;;;;;;;21.51;25.89;94984.72;1028554;28;1478;-75
2021/12/07 03:26:40;;;;;;;;;;;;;;;21.50;26.21;94983.16;1033301;28;1262;-75
2021/12/07 03:27:10;;;;;;;;;;;;;;;21.49;25.91;94981.63;1028741;28;1320;-75
2021/12/07 03:27:41;;;;;;;;;;;;;;;21.50;26.26;94993.69;1028855;28;1480;-74
2021/12/07 03:28:11;;;;;;;;;;;;;;;21.50;26.11;94988.44;1028138;28;1225;-76
2021/12/07 03:28:43;;;;;;;;;;;;;;;21.51;26.22;94994.50;1025310;28;2043;-75
2021/12/07 03:29:13;;;;;;;;;;;;;;;21.52;25.90;94985.50;1027891;28;1421;-74
2021/12/07 03:29:43;;;;;;;;;;;;;;;21.51;25.84;94986.56;1028756;28;1120;-76
2021/12/07 03:30:14;;;;;;;;;;;;;;;21.50;25.89;94992.91;1024948;28;1162;-74
2021/12/07 03:30:44;;;;;;;;;;;;;;;21.50;25.80;94993.69;1022114;29;1494;-73
2021/12/07 03:31:14;;;;;;;;;;;;;;;21.50;25.90;94992.91;1025231;28;1370;-74
2021/12/07 03:31:45;;;;;;;;;;;;;;;21.50;25.91;94991.06;1024540;28;1915;-73
2021/12/07 03:32:16;;;;;;;;;;;;;;;21.50;25.77;94991.06;1028529;28;1169;-76
2021/12/07 03:32:46;;;;;;;;;;;;;;;21.49;25.91;94991.38;1024897;28;1118;-75
2021/12/07 03:33:16;;;;;;;;;;;;;;;21.48;25.88;94990.59;1028875;28;1169;-75
2021/12/07 03:33:47;;;;;;;;;;;;;;;21.49;25.96;94997.44;1033201;28;1183;-73
2021/12/07 03:34:17;;;;;;;;;;;;;;;21.49;25.99;94996.66;1027740;28;2418;-74
2021/12/07 03:34:48;;;;;;;;;;;;;;;21.49;25.94;94997.44;1029422;28;1328;-75
2021/12/07 03:35:18;;;;;;;;;;;;;;;21.49;25.70;94999.28;1025424;28;1700;-75
2021/12/07 03:35:48;;;;;;;;;;;;;;;21.48;25.63;94990.59;1026959;28;1288;-73
2021/12/07 03:36:19;;;;;;;;;;;;;;;21.50;25.92;95000.81;1033386;28;1444;-73
2021/12/07 03:36:49;;;;;;;;;;;;;;;21.49;25.74;94999.28;1032780;28;1175;-75
2021/12/07 03:37:19;;;;;;;;;;;;;;;21.48;25.68;94998.50;1024859;28;1184;-76
2021/12/07 03:37:50;;;;;;;;;;;;;;;21.49;25.81;95004.56;1028630;28;1156;-75
2021/12/07 03:38:20;;;;;;;;;;;;;;;21.49;25.98;94992.16;1028653;28;1238;-75
2021/12/07 03:38:51;;;;;;;;;;;;;;;21.49;25.97;95001.91;1033385;28;1116;-75
2021/12/07 03:39:21;;;;;;;;;;;;;;;21.49;25.87;94996.66;1032398;28;2275;-74
2021/12/07 03:39:52;;;;;;;;;;;;;;;21.49;26.09;94996.66;1036813;28;1824;-76
2021/12/07 03:40:22;;;;;;;;;;;;;;;21.48;25.77;95001.13;1033366;28;1312;-75
2021/12/07 03:40:52;;;;;;;;;;;;;;;21.49;26.04;94999.28;1032131;28;1453;-75
2021/12/07 03:41:23;;;;;;;;;;;;;;;21.49;25.96;95002.72;1028401;28;1159;-76
2021/12/07 03:41:53;;;;;;;;;;;;;;;21.48;25.55;95001.13;1025234;29;1145;-75
2021/12/07 03:42:23;;;;;;;;;;;;;;;21.49;25.82;94994.78;1024684;28;1375;-75
2021/12/07 03:42:54;;;;;;;;;;;;;;;21.47;25.81;94999.59;1025220;28;1188;-77
2021/12/07 03:43:24;;;;;;;;;;;;;;;21.49;25.84;94997.44;1030049;28;1671;-74
2021/12/07 03:43:55;;;;;;;;;;;;;;;21.49;25.75;94996.66;1027228;28;1379;-75
2021/12/07 03:44:25;;;;;;;;;;;;;;;21.49;25.79;94997.44;1022819;28;2153;-75
2021/12/07 03:44:55;;;;;;;;;;;;;;;21.49;25.70;94996.66;1020494;29;1211;-76
2021/12/07 03:45:26;;;;;;;;;;;;;;;21.49;25.78;94997.44;1021177;29;1316;-74
2021/12/07 03:45:56;;;;;;;;;;;;;;;21.49;25.78;95001.91;1021496;29;1613;-75
2021/12/07 03:46:26;;;;;;;;;;;;;;;21.49;25.77;95001.91;1025350;29;1306;-75
2021/12/07 03:46:57;;;;;;;;;;;;;;;21.47;25.84;94994.31;1023563;28;1285;-75
2021/12/07 03:47:27;;;;;;;;;;;;;;;21.48;25.77;94998.50;1033211;28;960;-75
2021/12/07 03:47:57;;;;;;;;;;;;;;;21.49;25.83;94999.28;1033185;28;1215;-75
2021/12/07 03:48:28;;;;;;;;;;;;;;;21.49;25.89;94997.44;1031346;28;1410;-75
2021/12/07 03:48:58;;;;;;;;;;;;;;;21.48;25.90;94990.59;1031645;28;1296;-76
2021/12/07 03:49:28;;;;;;;;;;;;;;;21.49;26.05;94988.72;1031378;28;2188;-75
2021/12/07 03:49:58;;;;;;;;;;;;;;;21.49;25.87;94988.72;1022335;29;1231;-72
2021/12/07 03:50:29;;;;;;;;;;;;;;;21.49;25.78;94989.53;1025529;29;1011;-74
2021/12/07 03:50:59;;;;;;;;;;;;;;;21.49;26.08;94989.53;1028391;28;1185;-75
2021/12/07 03:51:29;;;;;;;;;;;;;;;21.49;25.99;94991.38;1033334;28;1968;-75
2021/12/07 03:52:00;;;;;;;;;;;;;;;21.49;25.99;94992.16;1029980;28;1105;-74
2021/12/07 03:52:30;;;;;;;;;;;;;;;21.48;25.99;94989.78;1026119;29;1368;-75
2021/12/07 03:53:01;;;;;;;;;;;;;;;21.49;25.90;94992.16;1024874;29;1424;-75